sensor_id;sensor_type;location;lat;lon;timestamp;temperature;humidity
33109;HTU21D;19481;51.118;6.940;2023-06-22T00:04:30;22.32;45.39
33109;HTU21D;19481;51.118;6.940;2023-06-22T00:09:31;22.29;45.41
33109;HTU21D;19481;51.118;6.940;2023-06-22T00:14:34;22.32;45.43
33109;HTU21D;19481;51.118;6.940;2023-06-22T00:19:36;22.29;45.44
33109;HTU21D;19481;51.118;6.940;2023-06-22T00:24:40;22.26;45.54
33109;HTU21D;19481;51.118;6.940;2023-06-22T00:29:43;22.26;45.65
33109;HTU21D;19481;51.118;6.940;2023-06-22T00:34:45;22.22;45.69
33109;HTU21D;19481;51.118;6.940;2023-06-22T00:39:46;22.25;45.63
33109;HTU21D;19481;51.118;6.940;2023-06-22T00:44:49;22.22;45.71
33109;HTU21D;19481;51.118;6.940;2023-06-22T00:49:51;22.20;45.79
33109;HTU21D;19481;51.118;6.940;2023-06-22T00:54:53;22.20;45.77
33109;HTU21D;19481;51.118;6.940;2023-06-22T00:59:56;22.12;45.96
33109;HTU21D;19481;51.118;6.940;2023-06-22T01:04:58;22.05;46.09
33109;HTU21D;19481;51.118;6.940;2023-06-22T01:10:07;21.98;46.47
33109;HTU21D;19481;51.118;6.940;2023-06-22T01:15:16;21.95;46.36
33109;HTU21D;19481;51.118;6.940;2023-06-22T01:20:21;21.99;46.06
33109;HTU21D;19481;51.118;6.940;2023-06-22T01:25:31;21.99;46.27
33109;HTU21D;19481;51.118;6.940;2023-06-22T01:30:34;21.97;46.12
33109;HTU21D;19481;51.118;6.940;2023-06-22T01:35:38;21.95;46.22
33109;HTU21D;19481;51.118;6.940;2023-06-22T01:40:40;21.82;46.54
33109;HTU21D;19481;51.118;6.940;2023-06-22T01:45:43;21.79;46.66
33109;HTU21D;19481;51.118;6.940;2023-06-22T01:50:45;21.81;46.62
33109;HTU21D;19481;51.118;6.940;2023-06-22T01:55:48;21.78;46.64
33109;HTU21D;19481;51.118;6.940;2023-06-22T02:00:56;21.70;47.01
33109;HTU21D;19481;51.118;6.940;2023-06-22T02:06:03;21.66;46.96
33109;HTU21D;19481;51.118;6.940;2023-06-22T02:11:06;21.60;47.03
33109;HTU21D;19481;51.118;6.940;2023-06-22T02:16:11;21.53;47.18
33109;HTU21D;19481;51.118;6.940;2023-06-22T02:21:13;21.47;47.26
33109;HTU21D;19481;51.118;6.940;2023-06-22T02:26:17;21.47;47.26
33109;HTU21D;19481;51.118;6.940;2023-06-22T02:31:20;21.44;47.36
33109;HTU21D;19481;51.118;6.940;2023-06-22T02:36:22;21.45;47.34
33109;HTU21D;19481;51.118;6.940;2023-06-22T02:41:24;21.49;47.31
33109;HTU21D;19481;51.118;6.940;2023-06-22T02:46:27;21.47;47.43
33109;HTU21D;19481;51.118;6.940;2023-06-22T02:51:32;21.51;47.41
33109;HTU21D;19481;51.118;6.940;2023-06-22T02:56:34;21.50;47.50
33109;HTU21D;19481;51.118;6.940;2023-06-22T03:01:38;21.47;47.71
33109;HTU21D;19481;51.118;6.940;2023-06-22T03:06:41;21.44;47.86
33109;HTU21D;19481;51.118;6.940;2023-06-22T03:11:43;21.36;48.24
33109;HTU21D;19481;51.118;6.940;2023-06-22T03:16:46;21.36;48.29
33109;HTU21D;19481;51.118;6.940;2023-06-22T03:21:47;21.37;48.24
33109;HTU21D;19481;51.118;6.940;2023-06-22T03:26:49;21.37;48.24
33109;HTU21D;19481;51.118;6.940;2023-06-22T03:31:52;21.43;48.21
33109;HTU21D;19481;51.118;6.940;2023-06-22T03:36:53;21.49;48.13
33109;HTU21D;19481;51.118;6.940;2023-06-22T03:41:55;21.52;48.12
33109;HTU21D;19481;51.118;6.940;2023-06-22T03:46:58;21.51;48.26
33109;HTU21D;19481;51.118;6.940;2023-06-22T03:52:00;21.52;48.20
33109;HTU21D;19481;51.118;6.940;2023-06-22T03:57:02;21.58;48.11
33109;HTU21D;19481;51.118;6.940;2023-06-22T04:02:05;21.61;48.12
33109;HTU21D;19481;51.118;6.940;2023-06-22T04:07:07;21.68;48.02
33109;HTU21D;19481;51.118;6.940;2023-06-22T04:12:09;21.74;48.07
33109;HTU21D;19481;51.118;6.940;2023-06-22T04:17:12;21.78;48.14
33109;HTU21D;19481;51.118;6.940;2023-06-22T04:22:14;21.77;48.19
33109;HTU21D;19481;51.118;6.940;2023-06-22T04:27:16;21.84;48.08
33109;HTU21D;19481;51.118;6.940;2023-06-22T04:32:20;22.02;47.66
33109;HTU21D;19481;51.118;6.940;2023-06-22T04:37:21;22.05;47.60
33109;HTU21D;19481;51.118;6.940;2023-06-22T04:42:26;22.18;47.28
33109;HTU21D;19481;51.118;6.940;2023-06-22T04:47:29;22.29;46.96
33109;HTU21D;19481;51.118;6.940;2023-06-22T04:52:30;22.40;46.78
33109;HTU21D;19481;51.118;6.940;2023-06-22T04:57:32;22.51;46.60
33109;HTU21D;19481;51.118;6.940;2023-06-22T05:02:35;22.54;46.82
33109;HTU21D;19481;51.118;6.940;2023-06-22T05:07:37;22.64;46.58
33109;HTU21D;19481;51.118;6.940;2023-06-22T05:12:40;22.71;46.54
33109;HTU21D;19481;51.118;6.940;2023-06-22T05:17:43;22.80;46.47
33109;HTU21D;19481;51.118;6.940;2023-06-22T05:22:46;22.94;46.26
33109;HTU21D;19481;51.118;6.940;2023-06-22T05:27:47;23.03;46.22
33109;HTU21D;19481;51.118;6.940;2023-06-22T05:32:52;23.14;46.25
33109;HTU21D;19481;51.118;6.940;2023-06-22T05:37:53;23.24;46.08
33109;HTU21D;19481;51.118;6.940;2023-06-22T05:42:55;23.26;46.26
33109;HTU21D;19481;51.118;6.940;2023-06-22T05:47:58;23.28;46.43
33109;HTU21D;19481;51.118;6.940;2023-06-22T05:53:00;23.23;46.64
33109;HTU21D;19481;51.118;6.940;2023-06-22T05:58:03;23.21;46.80
33109;HTU21D;19481;51.118;6.940;2023-06-22T06:03:06;23.08;47.34
33109;HTU21D;19481;51.118;6.940;2023-06-22T06:08:08;22.26;50.41
33109;HTU21D;19481;51.118;6.940;2023-06-22T06:13:11;21.08;54.65
33109;HTU21D;19481;51.118;6.940;2023-06-22T06:18:14;20.44;56.46
33109;HTU21D;19481;51.118;6.940;2023-06-22T06:23:15;20.18;56.78
33109;HTU21D;19481;51.118;6.940;2023-06-22T06:28:17;20.39;55.81
33109;HTU21D;19481;51.118;6.940;2023-06-22T06:33:20;20.49;55.84
33109;HTU21D;19481;51.118;6.940;2023-06-22T06:38:22;20.63;55.61
33109;HTU21D;19481;51.118;6.940;2023-06-22T06:43:23;20.84;55.42
33109;HTU21D;19481;51.118;6.940;2023-06-22T06:48:27;20.86;55.93
33109;HTU21D;19481;51.118;6.940;2023-06-22T06:53:28;20.90;56.00
33109;HTU21D;19481;51.118;6.940;2023-06-22T06:58:30;21.10;55.97
33109;HTU21D;19481;51.118;6.940;2023-06-22T07:03:33;21.60;55.19
33109;HTU21D;19481;51.118;6.940;2023-06-22T07:08:34;22.23;54.39
33109;HTU21D;19481;51.118;6.940;2023-06-22T07:13:37;22.35;55.04
33109;HTU21D;19481;51.118;6.940;2023-06-22T07:18:40;22.40;55.86
33109;HTU21D;19481;51.118;6.940;2023-06-22T07:23:42;22.95;54.91
33109;HTU21D;19481;51.118;6.940;2023-06-22T07:28:43;23.31;54.81
33109;HTU21D;19481;51.118;6.940;2023-06-22T07:33:46;24.45;53.08
33109;HTU21D;19481;51.118;6.940;2023-06-22T07:38:48;26.48;49.54
33109;HTU21D;19481;51.118;6.940;2023-06-22T07:43:49;27.02;50.60
33109;HTU21D;19481;51.118;6.940;2023-06-22T07:48:52;27.82;50.59
33109;HTU21D;19481;51.118;6.940;2023-06-22T07:53:54;28.32;50.50
33109;HTU21D;19481;51.118;6.940;2023-06-22T07:58:56;28.93;49.86
33109;HTU21D;19481;51.118;6.940;2023-06-22T08:04:00;29.03;50.35
33109;HTU21D;19481;51.118;6.940;2023-06-22T08:09:02;29.30;50.08
33109;HTU21D;19481;51.118;6.940;2023-06-22T08:14:04;29.32;50.15
33109;HTU21D;19481;51.118;6.940;2023-06-22T08:19:07;30.66;47.23
33109;HTU21D;19481;51.118;6.940;2023-06-22T08:24:09;30.59;48.16
33109;HTU21D;19481;51.118;6.940;2023-06-22T08:29:10;30.62;47.66
33109;HTU21D;19481;51.118;6.940;2023-06-22T08:34:13;31.01;46.35
33109;HTU21D;19481;51.118;6.940;2023-06-22T08:39:15;31.12;46.24
33109;HTU21D;19481;51.118;6.940;2023-06-22T08:44:18;31.20;45.60
33109;HTU21D;19481;51.118;6.940;2023-06-22T08:49:22;31.31;45.50
33109;HTU21D;19481;51.118;6.940;2023-06-22T08:54:23;32.11;43.69
33109;HTU21D;19481;51.118;6.940;2023-06-22T08:59:25;33.16;40.90
33109;HTU21D;19481;51.118;6.940;2023-06-22T09:04:28;32.13;42.96
33109;HTU21D;19481;51.118;6.940;2023-06-22T09:09:29;31.45;44.22
33109;HTU21D;19481;51.118;6.940;2023-06-22T09:14:31;32.37;41.35
33109;HTU21D;19481;51.118;6.940;2023-06-22T09:19:34;32.29;41.47
33109;HTU21D;19481;51.118;6.940;2023-06-22T09:24:35;32.13;41.74
33109;HTU21D;19481;51.118;6.940;2023-06-22T09:29:37;31.61;42.52
33109;HTU21D;19481;51.118;6.940;2023-06-22T09:34:40;30.78;43.74
33109;HTU21D;19481;51.118;6.940;2023-06-22T09:39:41;30.37;43.78
33109;HTU21D;19481;51.118;6.940;2023-06-22T09:44:43;30.54;42.64
33109;HTU21D;19481;51.118;6.940;2023-06-22T09:49:46;30.24;42.77
33109;HTU21D;19481;51.118;6.940;2023-06-22T09:54:48;30.37;42.45
33109;HTU21D;19481;51.118;6.940;2023-06-22T09:59:49;29.92;43.19
33109;HTU21D;19481;51.118;6.940;2023-06-22T10:04:52;29.78;43.48
33109;HTU21D;19481;51.118;6.940;2023-06-22T10:09:54;29.80;43.25
33109;HTU21D;19481;51.118;6.940;2023-06-22T10:14:55;29.30;44.23
33109;HTU21D;19481;51.118;6.940;2023-06-22T10:19:58;28.89;44.96
33109;HTU21D;19481;51.118;6.940;2023-06-22T10:25:01;28.59;45.21
33109;HTU21D;19481;51.118;6.940;2023-06-22T10:30:03;28.13;45.93
33109;HTU21D;19481;51.118;6.940;2023-06-22T10:35:08;27.78;46.41
33109;HTU21D;19481;51.118;6.940;2023-06-22T10:40:12;27.23;48.27
33109;HTU21D;19481;51.118;6.940;2023-06-22T10:45:14;26.65;49.99
33109;HTU21D;19481;51.118;6.940;2023-06-22T10:50:17;26.24;51.44
33109;HTU21D;19481;51.118;6.940;2023-06-22T10:55:20;25.86;52.25
33109;HTU21D;19481;51.118;6.940;2023-06-22T11:00:22;25.48;53.02
33109;HTU21D;19481;51.118;6.940;2023-06-22T11:05:25;25.23;53.54
33109;HTU21D;19481;51.118;6.940;2023-06-22T11:10:26;24.89;54.23
33109;HTU21D;19481;51.118;6.940;2023-06-22T11:15:28;24.72;54.52
33109;HTU21D;19481;51.118;6.940;2023-06-22T11:20:31;24.41;56.36
33109;HTU21D;19481;51.118;6.940;2023-06-22T11:25:34;23.60;57.70
33109;HTU21D;19481;51.118;6.940;2023-06-22T11:30:38;23.27;58.06
33109;HTU21D;19481;51.118;6.940;2023-06-22T11:35:41;23.16;58.24
33109;HTU21D;19481;51.118;6.940;2023-06-22T11:40:43;23.51;57.16
33109;HTU21D;19481;51.118;6.940;2023-06-22T11:45:44;23.75;56.75
33109;HTU21D;19481;51.118;6.940;2023-06-22T11:50:47;23.80;56.96
33109;HTU21D;19481;51.118;6.940;2023-06-22T11:55:49;23.83;57.10
33109;HTU21D;19481;51.118;6.940;2023-06-22T12:00:51;24.12;56.51
33109;HTU21D;19481;51.118;6.940;2023-06-22T12:05:54;23.83;57.94
33109;HTU21D;19481;51.118;6.940;2023-06-22T12:10:55;23.70;58.17
33109;HTU21D;19481;51.118;6.940;2023-06-22T12:15:57;23.56;58.42
33109;HTU21D;19481;51.118;6.940;2023-06-22T12:21:00;23.79;57.68
33109;HTU21D;19481;51.118;6.940;2023-06-22T12:26:01;24.53;55.74
33109;HTU21D;19481;51.118;6.940;2023-06-22T12:31:03;24.97;55.38
33109;HTU21D;19481;51.118;6.940;2023-06-22T12:36:06;25.00;56.10
33109;HTU21D;19481;51.118;6.940;2023-06-22T12:41:08;24.56;57.48
33109;HTU21D;19481;51.118;6.940;2023-06-22T12:46:09;25.00;56.20
33109;HTU21D;19481;51.118;6.940;2023-06-22T12:51:12;25.20;55.87
33109;HTU21D;19481;51.118;6.940;2023-06-22T12:56:21;25.31;55.84
33109;HTU21D;19481;51.118;6.940;2023-06-22T13:01:23;25.45;55.87
33109;HTU21D;19481;51.118;6.940;2023-06-22T13:06:26;25.97;54.94
33109;HTU21D;19481;51.118;6.940;2023-06-22T13:11:27;25.80;55.80
33109;HTU21D;19481;51.118;6.940;2023-06-22T13:16:29;25.97;55.34
33109;HTU21D;19481;51.118;6.940;2023-06-22T13:21:32;26.54;54.19
33109;HTU21D;19481;51.118;6.940;2023-06-22T13:26:34;26.76;53.75
33109;HTU21D;19481;51.118;6.940;2023-06-22T13:31:37;26.58;54.48
33109;HTU21D;19481;51.118;6.940;2023-06-22T13:36:40;26.38;55.20
33109;HTU21D;19481;51.118;6.940;2023-06-22T13:41:41;26.38;55.16
33109;HTU21D;19481;51.118;6.940;2023-06-22T13:46:44;26.31;55.30
33109;HTU21D;19481;51.118;6.940;2023-06-22T13:51:47;26.54;54.46
33109;HTU21D;19481;51.118;6.940;2023-06-22T13:56:49;27.13;53.06
33109;HTU21D;19481;51.118;6.940;2023-06-22T14:01:50;27.29;52.69
33109;HTU21D;19481;51.118;6.940;2023-06-22T14:06:53;27.23;53.29
33109;HTU21D;19481;51.118;6.940;2023-06-22T14:11:56;27.04;53.80
33109;HTU21D;19481;51.118;6.940;2023-06-22T14:16:57;26.90;53.84
33109;HTU21D;19481;51.118;6.940;2023-06-22T14:22:00;26.55;54.46
33109;HTU21D;19481;51.118;6.940;2023-06-22T14:27:02;26.26;55.10
33109;HTU21D;19481;51.118;6.940;2023-06-22T14:32:06;26.11;55.23
33109;HTU21D;19481;51.118;6.940;2023-06-22T14:37:09;26.31;54.40
33109;HTU21D;19481;51.118;6.940;2023-06-22T14:42:10;26.35;54.01
33109;HTU21D;19481;51.118;6.940;2023-06-22T14:47:12;26.13;54.38
33109;HTU21D;19481;51.118;6.940;2023-06-22T14:52:15;25.76;55.20
33109;HTU21D;19481;51.118;6.940;2023-06-22T14:57:16;25.61;55.30
33109;HTU21D;19481;51.118;6.940;2023-06-22T15:02:20;25.45;55.23
33109;HTU21D;19481;51.118;6.940;2023-06-22T15:07:23;25.46;54.94
33109;HTU21D;19481;51.118;6.940;2023-06-22T15:12:24;25.52;54.53
33109;HTU21D;19481;51.118;6.940;2023-06-22T15:17:26;25.59;54.36
33109;HTU21D;19481;51.118;6.940;2023-06-22T15:22:30;25.38;55.28
33109;HTU21D;19481;51.118;6.940;2023-06-22T15:27:32;24.82;57.08
33109;HTU21D;19481;51.118;6.940;2023-06-22T15:32:34;23.76;59.59
33109;HTU21D;19481;51.118;6.940;2023-06-22T15:37:37;23.14;60.95
33109;HTU21D;19481;51.118;6.940;2023-06-22T15:42:38;22.73;61.80
33109;HTU21D;19481;51.118;6.940;2023-06-22T15:47:40;22.55;61.70
33109;HTU21D;19481;51.118;6.940;2023-06-22T15:52:43;22.42;61.79
33109;HTU21D;19481;51.118;6.940;2023-06-22T15:57:47;22.27;61.51
33109;HTU21D;19481;51.118;6.940;2023-06-22T16:02:49;22.24;61.47
33109;HTU21D;19481;51.118;6.940;2023-06-22T16:07:55;22.21;63.59
33109;HTU21D;19481;51.118;6.940;2023-06-22T16:12:56;22.23;61.25
33109;HTU21D;19481;51.118;6.940;2023-06-22T16:17:58;22.21;61.12
33109;HTU21D;19481;51.118;6.940;2023-06-22T16:23:01;22.16;61.79
33109;HTU21D;19481;51.118;6.940;2023-06-22T16:28:02;22.14;61.28
33109;HTU21D;19481;51.118;6.940;2023-06-22T16:33:04;22.08;61.54
33109;HTU21D;19481;51.118;6.940;2023-06-22T16:38:07;21.97;62.01
33109;HTU21D;19481;51.118;6.940;2023-06-22T16:43:09;21.91;62.44
33109;HTU21D;19481;51.118;6.940;2023-06-22T16:48:10;21.91;62.21
33109;HTU21D;19481;51.118;6.940;2023-06-22T16:53:13;21.64;63.34
33109;HTU21D;19481;51.118;6.940;2023-06-22T16:58:19;21.46;64.95
33109;HTU21D;19481;51.118;6.940;2023-06-22T17:03:28;21.51;65.11
33109;HTU21D;19481;51.118;6.940;2023-06-22T17:08:32;21.64;63.45
33109;HTU21D;19481;51.118;6.940;2023-06-22T17:13:35;21.76;62.98
33109;HTU21D;19481;51.118;6.940;2023-06-22T17:18:36;21.74;63.46
33109;HTU21D;19481;51.118;6.940;2023-06-22T17:23:41;21.87;63.19
33109;HTU21D;19481;51.118;6.940;2023-06-22T17:28:46;21.92;64.15
33109;HTU21D;19481;51.118;6.940;2023-06-22T17:33:48;21.91;63.15
33109;HTU21D;19481;51.118;6.940;2023-06-22T17:38:52;22.12;62.64
33109;HTU21D;19481;51.118;6.940;2023-06-22T17:43:59;22.19;62.61
33109;HTU21D;19481;51.118;6.940;2023-06-22T17:49:01;22.23;62.84
33109;HTU21D;19481;51.118;6.940;2023-06-22T17:54:04;22.19;63.95
33109;HTU21D;19481;51.118;6.940;2023-06-22T17:59:06;22.10;64.77
33109;HTU21D;19481;51.118;6.940;2023-06-22T18:04:09;21.97;64.40
33109;HTU21D;19481;51.118;6.940;2023-06-22T18:09:14;21.98;64.58
33109;HTU21D;19481;51.118;6.940;2023-06-22T18:14:17;22.02;64.18
33109;HTU21D;19481;51.118;6.940;2023-06-22T18:19:19;22.07;64.06
33109;HTU21D;19481;51.118;6.940;2023-06-22T18:24:22;22.10;64.07
33109;HTU21D;19481;51.118;6.940;2023-06-22T18:29:25;22.22;63.75
33109;HTU21D;19481;51.118;6.940;2023-06-22T18:34:27;22.27;63.82
33109;HTU21D;19481;51.118;6.940;2023-06-22T18:39:31;22.33;64.01
33109;HTU21D;19481;51.118;6.940;2023-06-22T18:44:33;22.34;64.05
33109;HTU21D;19481;51.118;6.940;2023-06-22T18:49:46;22.33;66.35
33109;HTU21D;19481;51.118;6.940;2023-06-22T18:54:49;22.26;64.59
33109;HTU21D;19481;51.118;6.940;2023-06-22T18:59:57;22.23;64.64
33109;HTU21D;19481;51.118;6.940;2023-06-22T19:05:06;21.72;66.48
33109;HTU21D;19481;51.118;6.940;2023-06-22T19:10:25;21.28;68.98
33109;HTU21D;19481;51.118;6.940;2023-06-22T19:15:30;21.03;67.00
33109;HTU21D;19481;51.118;6.940;2023-06-22T19:20:34;20.78;67.12
33109;HTU21D;19481;51.118;6.940;2023-06-22T19:25:37;20.43;68.15
33109;HTU21D;19481;51.118;6.940;2023-06-22T19:30:46;20.16;68.31
33109;HTU21D;19481;51.118;6.940;2023-06-22T19:35:49;20.01;68.78
33109;HTU21D;19481;51.118;6.940;2023-06-22T19:40:52;19.85;68.51
33109;HTU21D;19481;51.118;6.940;2023-06-22T19:45:54;19.66;70.12
33109;HTU21D;19481;51.118;6.940;2023-06-22T19:51:02;19.47;69.45
33109;HTU21D;19481;51.118;6.940;2023-06-22T19:56:06;19.21;69.93
33109;HTU21D;19481;51.118;6.940;2023-06-22T20:01:07;19.05;69.58
33109;HTU21D;19481;51.118;6.940;2023-06-22T20:06:10;18.74;70.34
33109;HTU21D;19481;51.118;6.940;2023-06-22T20:11:13;18.52;70.71
33109;HTU21D;19481;51.118;6.940;2023-06-22T20:16:15;18.46;70.42
33109;HTU21D;19481;51.118;6.940;2023-06-22T20:21:17;18.43;70.90
33109;HTU21D;19481;51.118;6.940;2023-06-22T20:26:20;18.28;70.37
33109;HTU21D;19481;51.118;6.940;2023-06-22T20:31:22;18.21;70.52
33109;HTU21D;19481;51.118;6.940;2023-06-22T20:36:23;18.14;70.48
33109;HTU21D;19481;51.118;6.940;2023-06-22T20:41:26;18.08;71.13
33109;HTU21D;19481;51.118;6.940;2023-06-22T20:46:29;18.06;72.72
33109;HTU21D;19481;51.118;6.940;2023-06-22T20:51:31;18.04;71.57
33109;HTU21D;19481;51.118;6.940;2023-06-22T20:56:34;18.18;71.48
33109;HTU21D;19481;51.118;6.940;2023-06-22T21:01:36;18.18;71.31
33109;HTU21D;19481;51.118;6.940;2023-06-22T21:06:37;18.20;69.94
33109;HTU21D;19481;51.118;6.940;2023-06-22T21:11:41;18.20;70.42
33109;HTU21D;19481;51.118;6.940;2023-06-22T21:16:42;18.23;70.26
33109;HTU21D;19481;51.118;6.940;2023-06-22T21:21:45;18.30;71.02
33109;HTU21D;19481;51.118;6.940;2023-06-22T21:26:48;18.26;69.91
33109;HTU21D;19481;51.118;6.940;2023-06-22T21:31:49;18.27;69.98
33109;HTU21D;19481;51.118;6.940;2023-06-22T21:36:51;18.24;70.23
33109;HTU21D;19481;51.118;6.940;2023-06-22T21:41:54;18.23;70.10
33109;HTU21D;19481;51.118;6.940;2023-06-22T21:46:55;18.23;70.03
33109;HTU21D;19481;51.118;6.940;2023-06-22T21:51:57;18.24;71.33
33109;HTU21D;19481;51.118;6.940;2023-06-22T21:57:00;18.20;70.65
33109;HTU21D;19481;51.118;6.940;2023-06-22T22:02:01;18.20;70.24
33109;HTU21D;19481;51.118;6.940;2023-06-22T22:07:04;18.23;70.25
33109;HTU21D;19481;51.118;6.940;2023-06-22T22:12:08;18.14;70.88
33109;HTU21D;19481;51.118;6.940;2023-06-22T22:17:10;18.15;71.16
33109;HTU21D;19481;51.118;6.940;2023-06-22T22:22:12;18.10;70.86
33109;HTU21D;19481;51.118;6.940;2023-06-22T22:27:15;18.05;70.52
33109;HTU21D;19481;51.118;6.940;2023-06-22T22:32:17;18.02;70.71
33109;HTU21D;19481;51.118;6.940;2023-06-22T22:37:18;17.99;72.20
33109;HTU21D;19481;51.118;6.940;2023-06-22T22:42:21;17.96;70.82
33109;HTU21D;19481;51.118;6.940;2023-06-22T22:47:23;17.94;70.94
33109;HTU21D;19481;51.118;6.940;2023-06-22T22:52:25;17.92;70.81
33109;HTU21D;19481;51.118;6.940;2023-06-22T22:57:30;17.89;71.74
33109;HTU21D;19481;51.118;6.940;2023-06-22T23:02:31;17.80;71.16
33109;HTU21D;19481;51.118;6.940;2023-06-22T23:07:33;17.75;71.15
33109;HTU21D;19481;51.118;6.940;2023-06-22T23:12:36;17.70;71.71
33109;HTU21D;19481;51.118;6.940;2023-06-22T23:17:38;17.59;72.03
33109;HTU21D;19481;51.118;6.940;2023-06-22T23:22:39;17.56;71.12
33109;HTU21D;19481;51.118;6.940;2023-06-22T23:27:42;17.52;71.00
33109;HTU21D;19481;51.118;6.940;2023-06-22T23:32:44;17.56;70.71
33109;HTU21D;19481;51.118;6.940;2023-06-22T23:37:45;17.52;70.81
33109;HTU21D;19481;51.118;6.940;2023-06-22T23:42:48;17.47;70.90
33109;HTU21D;19481;51.118;6.940;2023-06-22T23:47:50;17.41;70.89
33109;HTU21D;19481;51.118;6.940;2023-06-22T23:52:52;17.47;70.66
33109;HTU21D;19481;51.118;6.940;2023-06-22T23:57:55;17.46;70.55
